createdAt,value
2022-11-14T00:01:55.746Z,90.98
2022-11-14T00:04:47.503Z,90.93
2022-11-14T00:07:34.628Z,91.13
2022-11-14T00:10:19.841Z,91.17
2022-11-14T00:13:05.270Z,91.44
2022-11-14T00:15:54.139Z,91.61
2022-11-14T00:18:39.089Z,91.78
2022-11-14T00:21:24.293Z,91.63
2022-11-14T00:24:10.190Z,91.34
2022-11-14T00:26:55.263Z,91.54
2022-11-14T00:29:40.474Z,91.64
2022-11-14T00:32:25.420Z,92.01
2022-11-14T00:35:10.624Z,92.22
2022-11-14T00:37:55.643Z,92.47
2022-11-14T00:40:40.805Z,92.54
2022-11-14T00:43:26.031Z,92.60
2022-11-14T00:46:11.478Z,92.68
2022-11-14T00:48:56.807Z,92.69
2022-11-14T00:51:42.006Z,92.75
2022-11-14T00:54:27.238Z,92.85
2022-11-14T00:57:12.363Z,92.69
2022-11-14T00:59:57.214Z,92.88
2022-11-14T01:02:42.224Z,92.87
2022-11-14T01:05:27.299Z,92.79
2022-11-14T01:08:14.399Z,92.70
2022-11-14T01:11:00.409Z,92.51
2022-11-14T01:13:45.351Z,92.69
2022-11-14T01:16:30.310Z,92.95
2022-11-14T01:19:15.347Z,92.91
2022-11-14T01:22:04.763Z,93.36
2022-11-14T01:24:51.171Z,93.09
2022-11-14T01:27:36.500Z,93.53
2022-11-14T01:30:21.462Z,93.05
2022-11-14T01:33:06.947Z,92.97
2022-11-14T01:35:52.016Z,93.26
2022-11-14T01:38:37.509Z,93.14
2022-11-14T01:41:22.555Z,93.09
2022-11-14T01:44:18.148Z,93.10
2022-11-14T01:47:03.428Z,93.29
2022-11-14T01:49:51.004Z,93.22
2022-11-14T01:52:38.476Z,93.50
2022-11-14T01:55:23.462Z,93.67
2022-11-14T01:58:08.302Z,93.51
2022-11-14T02:00:53.636Z,93.12
2022-11-14T02:03:40.632Z,92.87
2022-11-14T02:06:27.942Z,92.56
2022-11-14T02:09:13.346Z,92.18
2022-11-14T02:11:59.837Z,91.59
2022-11-14T02:14:52.383Z,91.89
2022-11-14T02:17:37.211Z,92.20
2022-11-14T02:20:24.701Z,92.60
2022-11-14T02:23:11.539Z,92.86
2022-11-14T02:25:56.530Z,92.78
2022-11-14T02:28:41.629Z,92.70
2022-11-14T02:31:26.654Z,92.68
2022-11-14T02:34:11.624Z,92.72
2022-11-14T02:36:56.908Z,92.49
2022-11-14T02:39:42.015Z,92.87
2022-11-14T02:42:26.910Z,93.00
2022-11-14T02:45:12.574Z,92.86
2022-11-14T02:47:57.725Z,92.84
2022-11-14T02:50:43.513Z,92.75
2022-11-14T02:53:28.830Z,92.89
2022-11-14T02:56:14.030Z,92.87
2022-11-14T02:58:59.238Z,92.77
2022-11-14T03:01:44.517Z,92.66
2022-11-14T03:04:29.660Z,92.46
2022-11-14T03:07:15.008Z,92.25
2022-11-14T03:10:00.329Z,92.55
2022-11-14T03:12:45.307Z,92.43
2022-11-14T03:15:30.643Z,92.43
2022-11-14T03:18:15.468Z,92.29
2022-11-14T03:21:16.274Z,92.18
2022-11-14T03:24:01.097Z,91.79
2022-11-14T03:26:46.098Z,92.12
2022-11-14T03:29:31.218Z,91.77
2022-11-14T03:32:16.411Z,92.03
2022-11-14T03:35:01.471Z,92.18
2022-11-14T03:37:46.672Z,92.38
2022-11-14T03:40:31.824Z,92.48
2022-11-14T03:43:17.867Z,92.57
2022-11-14T03:46:03.458Z,92.29
2022-11-14T03:48:48.666Z,92.34
2022-11-14T03:51:33.972Z,92.38
2022-11-14T03:54:18.970Z,92.31
2022-11-14T03:57:04.646Z,92.26
2022-11-14T03:59:49.550Z,92.08
2022-11-14T04:02:34.450Z,92.02
2022-11-14T04:05:19.687Z,92.05
2022-11-14T04:08:05.825Z,92.23
2022-11-14T04:10:50.761Z,92.17
2022-11-14T04:13:35.882Z,92.10
2022-11-14T04:16:20.729Z,92.02
2022-11-14T04:19:06.065Z,92.28
2022-11-14T04:21:51.408Z,92.35
2022-11-14T04:24:36.263Z,92.55
2022-11-14T04:27:21.313Z,92.49
2022-11-14T04:30:07.132Z,92.44
2022-11-14T04:32:52.474Z,92.48
2022-11-14T04:35:37.523Z,92.20
2022-11-14T04:38:22.516Z,91.93
2022-11-14T04:41:07.439Z,91.88
2022-11-14T04:43:52.606Z,92.13
2022-11-14T04:46:37.500Z,91.92
2022-11-14T04:49:23.070Z,92.03
2022-11-14T04:52:08.025Z,91.79
2022-11-14T04:54:53.246Z,91.65
2022-11-14T04:57:38.242Z,91.78
2022-11-14T05:00:23.774Z,91.80
2022-11-14T05:03:08.754Z,92.02
2022-11-14T05:05:53.670Z,92.01
2022-11-14T05:08:38.649Z,91.83
2022-11-14T05:11:28.050Z,91.86
2022-11-14T05:14:14.192Z,91.76
2022-11-14T05:16:59.354Z,91.78
2022-11-14T05:19:44.317Z,91.68
2022-11-14T05:22:29.527Z,91.67
2022-11-14T05:25:14.657Z,91.70
2022-11-14T05:27:59.488Z,91.71
2022-11-14T05:30:44.438Z,91.42
2022-11-14T05:33:30.001Z,91.61
2022-11-14T05:36:16.356Z,91.72
2022-11-14T05:39:01.722Z,91.69
2022-11-14T05:41:46.467Z,91.77
2022-11-14T05:44:31.554Z,91.89
2022-11-14T05:47:16.586Z,91.88
2022-11-14T05:50:01.502Z,91.85
2022-11-14T05:52:46.533Z,92.11
2022-11-14T05:55:31.735Z,92.21
2022-11-14T05:58:16.775Z,92.36
2022-11-14T06:01:13.323Z,92.19
2022-11-14T06:03:58.152Z,91.97
2022-11-14T06:06:43.422Z,91.38
2022-11-14T06:09:28.609Z,91.50
2022-11-14T06:12:13.631Z,91.55
2022-11-14T06:14:58.846Z,91.67
2022-11-14T06:17:44.260Z,91.63
2022-11-14T06:20:29.497Z,91.42
2022-11-14T06:23:14.612Z,91.19
2022-11-14T06:26:01.391Z,91.14
2022-11-14T06:28:47.268Z,91.18
2022-11-14T06:31:32.142Z,91.43
2022-11-14T06:34:17.101Z,91.10
2022-11-14T06:37:02.485Z,91.21
2022-11-14T06:39:47.787Z,91.10
2022-11-14T06:42:32.999Z,90.80
2022-11-14T06:45:18.185Z,90.84
2022-11-14T06:48:03.301Z,91.14
2022-11-14T06:50:53.247Z,90.98
2022-11-14T06:53:38.887Z,91.12
2022-11-14T06:56:23.956Z,90.95
2022-11-14T06:59:08.901Z,91.11
2022-11-14T07:01:54.340Z,90.98
2022-11-14T07:04:39.755Z,90.80
2022-11-14T07:07:24.840Z,91.01
2022-11-14T07:10:10.315Z,91.15
2022-11-14T07:12:55.522Z,91.17
2022-11-14T07:15:40.461Z,91.27
2022-11-14T07:18:25.574Z,91.19
2022-11-14T07:21:13.170Z,91.32
2022-11-14T07:23:58.302Z,91.28
2022-11-14T07:26:43.403Z,91.21
2022-11-14T07:29:28.541Z,91.30
2022-11-14T07:32:13.933Z,91.33
2022-11-14T07:35:02.102Z,91.22
2022-11-14T07:37:47.947Z,91.33
2022-11-14T07:40:32.666Z,91.04
2022-11-14T07:43:17.825Z,90.94
2022-11-14T07:46:14.091Z,90.88
2022-11-14T07:48:59.235Z,90.66
2022-11-14T07:51:44.245Z,90.82
2022-11-14T07:54:29.257Z,90.92
2022-11-14T07:57:14.297Z,91.02
2022-11-14T07:59:59.143Z,91.01
2022-11-14T08:02:45.978Z,90.83
2022-11-14T08:05:31.159Z,90.53
2022-11-14T08:08:16.403Z,89.97
2022-11-14T08:11:01.800Z,89.78
2022-11-14T08:13:47.053Z,89.61
2022-11-14T08:16:31.870Z,89.20
2022-11-14T08:19:17.715Z,88.50
2022-11-14T08:22:03.232Z,88.19
2022-11-14T08:24:48.183Z,88.05
2022-11-14T08:27:33.116Z,87.82
2022-11-14T08:30:19.685Z,87.96
2022-11-14T08:33:06.127Z,87.60
2022-11-14T08:35:51.589Z,87.84
2022-11-14T08:38:37.352Z,87.68
2022-11-14T08:41:22.577Z,88.06
2022-11-14T08:44:07.791Z,88.50
2022-11-14T08:46:53.047Z,88.79
2022-11-14T08:49:38.291Z,89.18
2022-11-14T08:52:23.104Z,89.16
2022-11-14T08:55:08.382Z,89.40
2022-11-14T08:57:54.625Z,89.40
2022-11-14T09:00:39.986Z,89.47
2022-11-14T09:03:25.272Z,89.68
2022-11-14T09:06:10.638Z,89.51
2022-11-14T09:08:56.032Z,89.38
2022-11-14T09:11:41.202Z,89.12
2022-11-14T09:14:26.510Z,89.30
2022-11-14T09:17:11.338Z,88.87
2022-11-14T09:19:56.383Z,88.73
2022-11-14T09:22:41.357Z,88.52
2022-11-14T09:25:26.477Z,88.34
2022-11-14T09:28:11.411Z,88.06
2022-11-14T09:31:18.045Z,88.38
2022-11-14T09:34:02.882Z,88.52
2022-11-14T09:36:47.995Z,88.44
2022-11-14T09:39:33.110Z,88.28
2022-11-14T09:42:30.390Z,88.15
2022-11-14T09:45:16.821Z,88.19
2022-11-14T09:48:10.473Z,88.09
2022-11-14T09:51:11.839Z,87.73
2022-11-14T09:54:21.258Z,87.68
2022-11-14T09:57:14.384Z,87.50
2022-11-14T09:59:59.929Z,87.21
2022-11-14T10:02:59.798Z,86.88
2022-11-14T10:06:13.580Z,86.94
2022-11-14T10:09:01.740Z,86.66
2022-11-14T10:11:59.810Z,86.78
2022-11-14T10:14:59.974Z,86.75
2022-11-14T10:18:00.287Z,86.76
2022-11-14T10:20:54.148Z,86.78
2022-11-14T10:23:57.633Z,86.68
2022-11-14T10:26:51.540Z,86.78
2022-11-14T10:29:52.245Z,86.59
2022-11-14T10:32:59.460Z,86.51
2022-11-14T10:35:54.248Z,86.61
2022-11-14T10:38:45.250Z,86.58
2022-11-14T10:44:39.721Z,86.58
2022-11-14T10:47:25.433Z,86.65
2022-11-14T10:50:19.091Z,86.85
2022-11-14T10:53:14.011Z,87.10
2022-11-14T10:56:04.562Z,87.11
2022-11-14T10:58:50.895Z,87.29
2022-11-14T11:01:42.027Z,87.29
2022-11-14T11:04:37.439Z,87.18
2022-11-14T11:07:44.718Z,87.25
2022-11-14T11:10:49.819Z,86.81
2022-11-14T11:13:37.485Z,86.67
2022-11-14T11:16:24.532Z,86.44
2022-11-14T11:19:35.744Z,86.19
2022-11-14T11:22:37.943Z,86.26
2022-11-14T11:25:28.415Z,85.83
2022-11-14T11:28:18.250Z,85.51
2022-11-14T11:31:08.351Z,85.14
2022-11-14T11:33:53.945Z,85.23
2022-11-14T11:36:41.867Z,84.86
2022-11-14T11:39:30.175Z,84.57
2022-11-14T11:42:18.401Z,84.14
2022-11-14T11:45:06.963Z,83.83
2022-11-14T11:47:58.691Z,83.21
2022-11-14T11:50:43.770Z,82.36
2022-11-14T11:53:33.146Z,82.14
2022-11-14T11:56:22.305Z,81.46
2022-11-14T11:59:25.766Z,81.60
2022-11-14T12:02:24.192Z,80.95
2022-11-14T12:05:15.116Z,80.80
2022-11-14T12:08:06.385Z,80.79
2022-11-14T12:10:52.271Z,80.33
2022-11-14T12:14:10.582Z,80.22
2022-11-14T12:17:23.051Z,80.34
2022-11-14T12:20:25.062Z,80.11
2022-11-14T12:23:18.684Z,80.11
2022-11-14T12:26:09.615Z,79.88
2022-11-14T12:29:15.302Z,79.92
2022-11-14T12:32:05.647Z,80.15
2022-11-14T12:34:50.701Z,80.13
2022-11-14T12:37:38.361Z,80.09
2022-11-14T12:40:25.913Z,80.02
2022-11-14T12:43:36.841Z,80.61
2022-11-14T12:46:22.422Z,80.61
2022-11-14T12:49:46.070Z,80.63
2022-11-14T12:52:50.483Z,80.95
2022-11-14T12:55:35.578Z,80.87
2022-11-14T12:58:31.502Z,80.82
2022-11-14T13:01:31.758Z,80.98
2022-11-14T13:04:43.117Z,81.10
2022-11-14T13:07:47.667Z,81.37
2022-11-14T13:10:40.317Z,81.22
2022-11-14T13:13:43.961Z,81.35
2022-11-14T13:16:50.218Z,81.46
2022-11-14T13:19:58.461Z,81.66
2022-11-14T13:22:44.509Z,81.55
2022-11-14T13:25:29.595Z,81.35
2022-11-14T13:28:50.579Z,81.21
2022-11-14T13:31:38.569Z,81.18
2022-11-14T13:34:43.061Z,81.21
2022-11-14T13:37:53.077Z,81.19
2022-11-14T13:41:03.136Z,80.93
2022-11-14T13:43:55.422Z,80.69
2022-11-14T13:47:10.797Z,80.61
2022-11-14T13:50:10.919Z,80.55
2022-11-14T13:52:56.433Z,80.59
2022-11-14T13:55:53.209Z,80.48
2022-11-14T13:58:54.080Z,80.47
2022-11-14T14:02:14.991Z,80.66
2022-11-14T14:05:20.719Z,80.43
2022-11-14T14:08:14.453Z,80.53
2022-11-14T14:11:24.683Z,80.66
2022-11-14T14:14:23.065Z,80.81
2022-11-14T14:17:29.975Z,81.08
2022-11-14T14:20:40.318Z,81.39
2022-11-14T14:23:28.372Z,81.70
2022-11-14T14:26:28.318Z,82.05
2022-11-14T14:29:33.310Z,82.24
2022-11-14T14:32:19.797Z,82.30
2022-11-14T14:35:23.559Z,83.12
2022-11-14T14:38:12.810Z,83.53
2022-11-14T14:40:58.220Z,83.77
2022-11-14T14:43:44.571Z,83.76
2022-11-14T14:46:31.339Z,84.23
2022-11-14T14:49:21.592Z,84.39
2022-11-14T14:52:39.032Z,84.48
2022-11-14T14:55:24.017Z,84.59
2022-11-14T14:58:37.394Z,85.04
2022-11-14T15:01:27.670Z,85.12
2022-11-14T15:04:14.898Z,85.27
2022-11-14T15:06:59.897Z,85.58
2022-11-14T15:10:00.027Z,85.72
2022-11-14T15:12:45.376Z,86.00
2022-11-14T15:15:30.955Z,86.20
2022-11-14T15:18:34.719Z,86.20
2022-11-14T15:21:29.696Z,86.05
2022-11-14T15:24:14.530Z,86.09
2022-11-14T15:27:04.005Z,85.96
2022-11-14T15:29:50.717Z,85.71
2022-11-14T15:32:35.962Z,85.56
2022-11-14T15:35:25.506Z,85.41
2022-11-14T15:41:23.879Z,84.82
2022-11-14T15:44:34.196Z,83.95
2022-11-14T15:47:23.343Z,83.25
2022-11-14T15:50:11.301Z,82.57
2022-11-14T15:53:01.291Z,82.43
2022-11-14T15:55:46.342Z,82.06
2022-11-14T15:58:32.192Z,81.96
2022-11-14T16:01:23.054Z,81.40
2022-11-14T16:04:31.602Z,81.06
2022-11-14T16:07:17.381Z,80.47
2022-11-14T16:10:02.451Z,80.40
2022-11-14T16:12:52.413Z,79.69
2022-11-14T16:15:38.153Z,79.57
2022-11-14T16:18:23.310Z,79.58
2022-11-14T16:21:12.257Z,79.47
2022-11-14T16:23:57.876Z,79.44
2022-11-14T16:26:43.184Z,79.07
2022-11-14T16:29:29.158Z,78.79
2022-11-14T16:32:14.035Z,78.76
2022-11-14T16:34:59.259Z,78.68
2022-11-14T16:37:44.483Z,78.37
2022-11-14T16:40:29.628Z,78.58
2022-11-14T16:43:14.960Z,78.45
2022-11-14T16:46:07.199Z,78.40
2022-11-14T16:48:52.325Z,78.22
2022-11-14T16:51:53.470Z,78.27
2022-11-14T16:54:38.147Z,78.04
2022-11-14T16:57:24.229Z,77.57
2022-11-14T17:00:12.095Z,77.57
2022-11-14T17:02:57.600Z,77.68
2022-11-14T17:05:44.036Z,77.04
2022-11-14T17:08:29.046Z,76.80
2022-11-14T17:11:14.211Z,76.73
2022-11-14T17:13:59.013Z,76.48
2022-11-14T17:16:44.274Z,76.47
2022-11-14T17:19:30.247Z,75.97
2022-11-14T17:22:21.307Z,75.46
2022-11-14T17:25:06.357Z,75.46
2022-11-14T17:27:51.896Z,75.81
2022-11-14T17:30:43.482Z,75.28
2022-11-14T17:33:28.650Z,75.80
2022-11-14T17:36:14.064Z,75.83
2022-11-14T17:38:59.078Z,75.55
2022-11-14T17:41:44.337Z,75.66
2022-11-14T17:44:31.275Z,75.80
2022-11-14T17:47:16.437Z,75.38
2022-11-14T17:50:01.491Z,75.75
2022-11-14T17:52:46.586Z,75.63
2022-11-14T17:55:31.815Z,75.77
2022-11-14T17:58:16.819Z,75.85
2022-11-14T18:01:01.949Z,75.69
2022-11-14T18:03:46.813Z,75.86
2022-11-14T18:06:33.963Z,75.85
2022-11-14T18:09:19.013Z,75.98
2022-11-14T18:12:04.444Z,76.04
2022-11-14T18:14:49.411Z,75.96
2022-11-14T18:17:34.572Z,75.81
2022-11-14T18:20:19.419Z,76.04
2022-11-14T18:23:04.619Z,76.09
2022-11-14T18:25:49.751Z,75.83
2022-11-14T18:28:35.016Z,75.56
2022-11-14T18:31:20.298Z,75.60
2022-11-14T18:34:05.295Z,75.06
2022-11-14T18:36:50.161Z,75.27
2022-11-14T18:39:35.086Z,74.97
2022-11-14T18:42:20.406Z,75.18
2022-11-14T18:45:05.934Z,75.40
2022-11-14T18:47:50.810Z,75.25
2022-11-14T18:50:35.660Z,75.98
2022-11-14T18:53:20.999Z,76.41
2022-11-14T18:56:06.842Z,76.24
2022-11-14T18:58:53.717Z,76.45
2022-11-14T19:01:38.811Z,75.97
2022-11-14T19:04:23.941Z,76.07
2022-11-14T19:07:09.916Z,75.76
2022-11-14T19:09:55.091Z,75.64
2022-11-14T19:12:40.027Z,75.37
2022-11-14T19:15:25.198Z,75.48
2022-11-14T19:18:10.396Z,74.58
2022-11-14T19:20:58.556Z,74.69
2022-11-14T19:23:43.842Z,74.84
2022-11-14T19:26:29.403Z,75.16
2022-11-14T19:29:14.329Z,74.87
2022-11-14T19:31:59.111Z,75.04
2022-11-14T19:34:45.222Z,74.96
2022-11-14T19:37:30.339Z,74.89
2022-11-14T19:40:15.446Z,75.25
2022-11-14T19:43:03.895Z,74.65
2022-11-14T19:45:48.977Z,75.10
2022-11-14T19:48:34.736Z,74.75
2022-11-14T19:51:21.032Z,74.98
2022-11-14T19:54:06.126Z,74.65
2022-11-14T19:56:51.507Z,74.95
2022-11-14T19:59:36.391Z,74.81
2022-11-14T20:02:21.558Z,74.49
2022-11-14T20:05:07.782Z,74.05
2022-11-14T20:07:53.786Z,73.60
2022-11-14T20:10:47.948Z,73.24
2022-11-14T20:13:36.140Z,73.50
2022-11-14T20:16:29.303Z,73.39
2022-11-14T20:19:14.354Z,73.15
2022-11-14T20:21:59.191Z,72.80
2022-11-14T20:24:44.327Z,73.09
2022-11-14T20:27:29.242Z,73.23
2022-11-14T20:30:14.828Z,73.34
2022-11-14T20:32:59.734Z,73.21
2022-11-14T20:35:44.724Z,73.00
2022-11-14T20:38:31.043Z,72.77
2022-11-14T20:41:16.673Z,72.17
2022-11-14T20:44:03.373Z,72.06
2022-11-14T20:46:49.299Z,71.87
2022-11-14T20:49:34.256Z,71.76
2022-11-14T20:52:19.475Z,71.49
2022-11-14T20:55:11.476Z,71.55
2022-11-14T20:57:56.760Z,71.30
2022-11-14T21:00:41.584Z,71.37
2022-11-14T21:03:27.287Z,71.24
2022-11-14T21:06:13.222Z,71.31
2022-11-14T21:08:58.404Z,71.63
2022-11-14T21:11:43.187Z,71.58
2022-11-14T21:14:28.120Z,72.17
2022-11-14T21:17:13.283Z,71.73
2022-11-14T21:19:58.293Z,72.12
2022-11-14T21:22:43.487Z,72.06
2022-11-14T21:25:29.832Z,72.28
2022-11-14T21:28:15.255Z,72.04
2022-11-14T21:31:01.006Z,72.43
2022-11-14T21:33:47.506Z,72.39
2022-11-14T21:36:47.920Z,72.15
2022-11-14T21:39:39.190Z,72.01
2022-11-14T21:42:24.090Z,71.25
2022-11-14T21:45:09.971Z,70.71
2022-11-14T21:47:55.022Z,70.78
2022-11-14T21:50:40.013Z,70.85
2022-11-14T21:53:25.010Z,70.17
2022-11-14T21:56:19.763Z,70.06
2022-11-14T21:59:21.235Z,69.83
2022-11-14T22:02:25.468Z,69.98
2022-11-14T22:05:10.921Z,70.42
2022-11-14T22:07:56.002Z,70.69
2022-11-14T22:10:41.052Z,70.82
2022-11-14T22:13:26.192Z,70.83
2022-11-14T22:16:11.406Z,71.40
2022-11-14T22:19:01.975Z,71.42
2022-11-14T22:21:49.667Z,71.72
2022-11-14T22:24:34.607Z,71.84
2022-11-14T22:27:19.587Z,72.14
2022-11-14T22:30:04.707Z,72.26
2022-11-14T22:32:49.662Z,72.49
2022-11-14T22:35:35.311Z,72.67
2022-11-14T22:38:20.536Z,72.71
2022-11-14T22:41:08.143Z,72.82
2022-11-14T22:43:53.100Z,72.84
2022-11-14T22:46:38.963Z,72.97
2022-11-14T22:49:23.893Z,72.39
2022-11-14T22:52:08.954Z,72.21
2022-11-14T22:54:54.237Z,72.33
2022-11-14T22:57:39.088Z,72.23
2022-11-14T23:00:25.447Z,72.05
2022-11-14T23:03:10.597Z,71.81
2022-11-14T23:05:56.811Z,71.60
2022-11-14T23:08:42.340Z,71.89
2022-11-14T23:11:29.480Z,71.56
2022-11-14T23:14:14.425Z,71.47
2022-11-14T23:16:59.378Z,71.57
2022-11-14T23:19:44.539Z,71.55
2022-11-14T23:22:29.633Z,71.45
2022-11-14T23:25:15.042Z,71.86
2022-11-14T23:28:00.199Z,71.77
2022-11-14T23:30:45.158Z,71.47
2022-11-14T23:33:30.937Z,71.94
2022-11-14T23:36:16.798Z,71.77
2022-11-14T23:39:01.783Z,72.42
2022-11-14T23:41:47.057Z,71.53
2022-11-14T23:44:31.870Z,71.96
2022-11-14T23:47:17.113Z,71.58
2022-11-14T23:50:02.097Z,71.69
2022-11-14T23:52:47.042Z,71.80
2022-11-14T23:55:31.942Z,72.20
2022-11-14T23:58:17.171Z,72.04
